Time;durP1;ratioP1;P1;durP2;ratioP2;P2;SDS_P1;SDS_P2;PMS_P1;PMS_P2;Temp;Humidity;BMP_temperature;BMP_pressure;BME280_temperature;BME280_humidity;BME280_pressure;Samples;Min_cycle;Max_cycle;Signal;HPM_P1;HPM_P2
2022/08/17 00:01:25;;;;;;;8.93;4.70;;;;;;;18.33;93.36;99777.71;1627771;84;21615;-68
2022/08/17 00:03:53;;;;;;;5.60;5.10;;;;;;;18.31;93.33;99771.76;1688213;84;21072;-68
2022/08/17 00:06:27;;;;;;;6.83;4.87;;;;;;;18.29;93.32;99780.09;1677971;83;21078;-68
2022/08/17 00:09:01;;;;;;;14.28;5.60;;;;;;;18.29;93.25;99776.05;1686767;84;21117;-68
2022/08/17 00:11:36;;;;;;;7.95;4.00;;;;;;;18.28;93.23;99787.89;1688963;81;21131;-67
2022/08/17 00:14:16;;;;;;;8.60;4.83;;;;;;;18.27;93.15;99787.63;1726647;81;20941;-67
2022/08/17 00:16:47;;;;;;;10.05;5.15;;;;;;;18.26;93.11;99782.48;1734832;81;21063;-69
2022/08/17 00:19:21;;;;;;;8.03;4.60;;;;;;;18.22;93.14;99777.31;1719533;81;20984;-69
2022/08/17 00:21:50;;;;;;;8.88;5.17;;;;;;;18.18;93.31;99781.05;1738888;81;21503;-67
2022/08/17 00:24:18;;;;;;;10.00;4.92;;;;;;;18.17;93.54;99783.99;1743598;80;21007;-68
2022/08/17 00:26:47;;;;;;;5.65;5.15;;;;;;;18.15;93.56;99775.34;1733607;80;21048;-69
2022/08/17 00:29:13;;;;;;;5.50;3.87;;;;;;;18.13;93.64;99778.28;1729127;80;21013;-69
2022/08/17 00:31:40;;;;;;;7.70;5.20;;;;;;;18.11;93.70;99776.92;1726750;80;21501;-69
2022/08/17 00:34:08;;;;;;;5.22;4.67;;;;;;;18.09;93.71;99777.97;1727434;80;21174;-70
2022/08/17 00:36:35;;;;;;;6.10;4.33;;;;;;;18.07;93.78;99778.75;1701459;83;21072;-68
2022/08/17 00:39:03;;;;;;;11.20;4.83;;;;;;;18.06;93.80;99773.09;1702178;83;21040;-68
2022/08/17 00:41:31;;;;;;;5.87;5.20;;;;;;;18.05;93.90;99774.69;1700320;83;20981;-68
2022/08/17 00:44:01;;;;;;;8.10;3.92;;;;;;;18.03;93.95;99774.94;1702916;83;21516;-68
2022/08/17 00:46:33;;;;;;;5.12;4.72;;;;;;;18.03;94.01;99778.98;1703107;83;21008;-68
2022/08/17 00:49:02;;;;;;;12.85;4.28;;;;;;;18.03;93.93;99773.59;1691562;83;21081;-68
2022/08/17 00:51:42;;;;;;;7.15;4.15;;;;;;;18.05;93.93;99776.05;1702965;83;21058;-71
2022/08/17 00:54:29;;;;;;;7.95;4.60;;;;;;;18.06;93.88;99771.75;1697987;83;22061;-72
2022/08/17 00:57:12;;;;;;;9.23;5.45;;;;;;;17.76;93.68;99721.45;1689214;83;20976;-68
2022/08/17 00:59:44;;;;;;;6.90;4.62;;;;;;;18.09;93.53;99771.23;1697164;83;21025;-68
2022/08/17 01:02:14;;;;;;;6.53;3.65;;;;;;;18.11;93.46;99759.39;1654129;84;21137;-69
2022/08/17 01:04:44;;;;;;;6.17;4.28;;;;;;;18.09;93.71;99761.79;1653493;85;21604;-68
2022/08/17 01:07:13;;;;;;;5.95;4.22;;;;;;;18.08;94.04;99764.22;1655763;85;21089;-69
2022/08/17 01:09:41;;;;;;;6.25;4.25;;;;;;;18.03;94.23;99765.50;1659262;85;21089;-68
2022/08/17 01:12:10;;;;;;;6.90;3.98;;;;;;;17.96;94.59;99761.37;1666927;83;21438;-69
2022/08/17 01:14:38;;;;;;;7.95;4.92;;;;;;;17.97;94.77;99765.67;1694938;83;21478;-68
2022/08/17 01:17:06;;;;;;;10.75;4.60;;;;;;;17.99;94.63;99768.94;1679976;83;21007;-69
2022/08/17 01:19:38;;;;;;;6.53;4.25;;;;;;;18.01;94.39;99767.64;1698276;83;21019;-69
2022/08/17 01:22:18;;;;;;;7.55;5.00;;;;;;;18.03;94.18;99765.50;1694032;83;21037;-69
2022/08/17 01:24:51;;;;;;;6.45;4.62;;;;;;;18.05;94.01;99766.06;1694770;83;21157;-67
2022/08/17 01:27:19;;;;;;;5.95;4.92;;;;;;;18.08;93.88;99766.92;1663128;85;21017;-68
2022/08/17 01:29:50;;;;;;;7.15;5.20;;;;;;;18.09;93.76;99764.48;1691456;83;21461;-69
2022/08/17 01:32:18;;;;;;;10.80;5.17;;;;;;;18.10;93.71;99755.85;1683899;83;20965;-68
2022/08/17 01:34:46;;;;;;;13.05;4.67;;;;;;;18.09;93.81;99760.98;1690112;83;21618;-69
2022/08/17 01:37:14;;;;;;;4.75;4.00;;;;;;;18.08;93.94;99756.64;1694060;83;21034;-68
2022/08/17 01:39:48;;;;;;;7.97;4.10;;;;;;;18.03;94.12;99753.36;1692880;83;20962;-68
2022/08/17 01:42:37;;;;;;;6.22;4.10;;;;;;;17.97;94.66;99752.20;1693971;84;21045;-68
2022/08/17 01:47:40;;;;;;;13.83;5.53;;;;;;;17.93;95.56;99745.14;1806914;77;22841;-68
2022/08/17 01:50:15;;;;;;;10.18;4.22;;;;;;;17.84;95.98;99735.86;1776885;78;21006;-68
2022/08/17 01:52:47;;;;;;;6.75;4.65;;;;;;;17.84;95.96;99738.55;1774493;77;21553;-67
2022/08/17 01:55:19;;;;;;;4.58;4.17;;;;;;;17.81;95.90;99737.70;1733287;80;21065;-68
2022/08/17 01:57:46;;;;;;;6.50;5.22;;;;;;;17.76;96.23;99737.62;1743314;81;21088;-68
2022/08/17 02:00:13;;;;;;;13.28;5.87;;;;;;;17.73;96.74;99744.88;1744212;82;20985;-67
2022/08/17 02:02:44;;;;;;;4.95;4.30;;;;;;;17.70;97.04;99738.09;1729570;82;21092;-68
2022/08/17 02:05:09;;;;;;;7.15;4.87;;;;;;;17.65;97.45;99748.28;1726174;81;21106;-67
2022/08/17 02:07:38;;;;;;;6.10;4.92;;;;;;;17.62;97.65;99740.69;1720349;83;21556;-68
2022/08/17 02:10:10;;;;;;;6.30;4.72;;;;;;;17.59;97.96;99746.56;1687202;84;21027;-72
2022/08/17 02:12:36;;;;;;;8.53;4.95;;;;;;;17.58;98.15;99749.00;1649961;83;20998;-68
2022/08/17 02:15:11;;;;;;;7.60;4.97;;;;;;;17.54;98.25;99743.82;1652514;85;21050;-69
2022/08/17 02:17:39;;;;;;;5.12;4.50;;;;;;;17.50;98.38;99738.11;1653514;85;21094;-69
2022/08/17 02:20:08;;;;;;;9.35;5.17;;;;;;;17.49;98.56;99740.52;1654449;85;21019;-67
2022/08/17 02:22:37;;;;;;;6.37;4.53;;;;;;;17.46;98.86;99738.84;1704848;79;21445;-67
2022/08/17 02:25:05;;;;;;;5.10;4.50;;;;;;;17.45;99.17;99733.19;1712269;83;21122;-68
2022/08/17 02:27:31;;;;;;;4.53;4.15;;;;;;;17.47;99.66;99732.41;1690264;83;21020;-67
2022/08/17 02:29:58;;;;;;;;;;;;;;;17.50;99.75;99736.77;1709847;82;21157;-68
2022/08/17 02:32:26;;;;;;;4.97;4.30;;;;;;;17.55;99.56;99740.05;1694328;83;20101;-68
2022/08/17 02:34:55;;;;;;;6.85;5.15;;;;;;;17.55;99.25;99742.74;1690522;82;21034;-68
2022/08/17 02:37:22;;;;;;;7.85;5.30;;;;;;;17.54;98.93;99741.64;1719233;81;21145;-69
2022/08/17 02:39:47;;;;;;;;;;;;;;;17.56;99.20;99746.27;1736892;83;20998;-68
2022/08/17 02:42:14;;;;;;;7.87;5.30;;;;;;;17.61;99.21;99749.85;1736000;83;20405;-68
2022/08/17 02:44:40;;;;;;;6.33;5.28;;;;;;;17.59;99.15;99750.61;1722621;82;21058;-68
2022/08/17 02:47:09;;;;;;;8.68;4.95;;;;;;;17.62;98.92;99745.27;1686816;83;21149;-68
2022/08/17 02:49:36;;;;;;;7.75;4.78;;;;;;;17.65;98.74;99742.06;1679293;85;21063;-67
2022/08/17 02:52:06;;;;;;;7.03;4.47;;;;;;;17.69;98.57;99742.67;1678219;85;21321;-68
2022/08/17 02:54:34;;;;;;;5.25;4.60;;;;;;;17.73;98.40;99737.60;1718429;82;21154;-70
2022/08/17 02:57:02;;;;;;;5.17;4.62;;;;;;;17.78;98.27;99732.80;1679816;83;21051;-68
2022/08/17 02:59:29;;;;;;;6.65;5.17;;;;;;;17.82;98.01;99732.06;1734926;81;21125;-67
2022/08/17 03:01:56;;;;;;;5.85;5.03;;;;;;;17.88;97.74;99739.16;1730986;81;21074;-67
2022/08/17 03:04:22;;;;;;;5.17;4.70;;;;;;;17.92;97.45;99736.78;1705143;83;21089;-68
2022/08/17 03:06:49;;;;;;;5.45;4.58;;;;;;;17.95;97.11;99730.91;1709308;82;21596;-69
2022/08/17 03:09:15;;;;;;;;;;;;;;;17.97;96.92;99727.42;1703104;83;21074;-68
2022/08/17 03:12:07;;;;;;;8.93;5.03;;;;;;;17.95;96.65;99727.37;1742911;80;20133;-68
2022/08/17 03:14:42;;;;;;;5.40;4.85;;;;;;;17.86;97.03;99724.31;1693671;84;21120;-70
2022/08/17 03:17:10;;;;;;;9.98;4.50;;;;;;;17.86;97.71;99718.39;1737548;81;21101;-68
2022/08/17 03:19:36;;;;;;;8.75;4.42;;;;;;;17.93;97.51;99727.61;1726822;81;21527;-68
2022/08/17 03:22:06;;;;;;;8.43;4.87;;;;;;;18.00;97.54;99727.44;1689976;84;21024;-67
2022/08/17 03:24:33;;;;;;;6.03;4.83;;;;;;;18.10;97.54;99722.14;1695126;83;20975;-67
2022/08/17 03:26:59;;;;;;;6.33;3.87;;;;;;;18.30;98.12;99718.86;1703737;82;21590;-67
2022/08/17 03:29:25;;;;;;;;;;;;;;;18.56;97.58;99725.31;1688228;83;21010;-72
2022/08/17 03:31:51;;;;;;;7.65;4.37;;;;;;;18.84;96.19;99717.48;1706785;83;20425;-68
2022/08/17 03:34:17;;;;;;;;;;;;;;;19.10;95.49;99714.98;1720408;82;20978;-68
2022/08/17 03:36:43;;;;;;;8.08;7.37;;;;;;;19.49;93.37;99720.06;1727213;83;20106;-68
2022/08/17 03:39:10;;;;;;;14.30;12.73;;;;;;;19.75;91.13;99716.16;1698155;81;21194;-69
2022/08/17 03:41:37;;;;;;;;;;;;;;;19.90;89.14;99717.58;1706973;83;21026;-68
2022/08/17 03:44:03;;;;;;;15.88;14.38;;;;;;;19.88;87.89;99720.28;1706302;83;20107;-67
2022/08/17 03:57:31;;;;;;;5.47;5.00;;;;;;;19.24;88.94;99724.25;1793066;79;21581;-70
2022/08/17 03:59:58;;;;;;;8.13;4.33;;;;;;;19.18;89.36;99725.30;1792549;79;21062;-67
2022/08/17 04:02:29;;;;;;;4.70;4.08;;;;;;;19.16;89.64;99724.74;1805019;79;21013;-68
2022/08/17 04:04:57;;;;;;;6.58;5.97;;;;;;;19.14;90.34;99729.59;1791634;79;21003;-69
2022/08/17 04:07:26;;;;;;;12.30;7.28;;;;;;;19.08;90.33;99731.98;1740045;80;21237;-69
2022/08/17 04:09:53;;;;;;;8.20;6.28;;;;;;;19.06;91.32;99734.11;1734482;81;21074;-70
2022/08/17 04:12:22;;;;;;;6.97;6.12;;;;;;;19.07;91.72;99729.00;1741562;81;21017;-69
2022/08/17 04:14:49;;;;;;;6.53;5.72;;;;;;;19.23;92.36;99721.28;1704683;82;21585;-67
2022/08/17 04:17:15;;;;;;;8.80;4.97;;;;;;;19.70;92.00;99714.75;1725813;83;21564;-69
2022/08/17 04:19:43;;;;;;;5.83;5.05;;;;;;;20.39;88.89;99728.52;1734703;82;20987;-68
2022/08/17 04:22:09;;;;;;;5.72;5.25;;;;;;;21.17;84.81;99726.94;1725042;82;21005;-68
2022/08/17 04:24:35;;;;;;;7.12;4.87;;;;;;;21.88;80.77;99718.33;1701312;82;21086;-68
2022/08/17 04:27:02;;;;;;;4.47;4.08;;;;;;;22.59;77.21;99716.31;1698754;84;20995;-69
2022/08/17 04:29:28;;;;;;;7.50;4.03;;;;;;;23.19;73.55;99709.83;1691189;84;21027;-68
2022/08/17 04:31:54;;;;;;;6.60;4.47;;;;;;;23.75;71.81;99711.11;1685731;84;21288;-68
2022/08/17 04:34:21;;;;;;;4.87;4.28;;;;;;;24.22;68.29;99712.97;1680022;82;21009;-72
2022/08/17 04:36:48;;;;;;;5.62;3.95;;;;;;;24.60;66.29;99711.60;1636057;86;21090;-70
2022/08/17 04:39:14;;;;;;;5.97;3.92;;;;;;;24.89;64.90;99713.86;1651254;86;21022;-68
2022/08/17 04:44:25;;;;;;;4.00;3.70;;;;;;;25.59;61.47;99711.48;1761160;80;21685;-68
2022/08/17 04:46:51;;;;;;;5.65;4.55;;;;;;;25.88;60.76;99700.78;1725959;81;21408;-69
2022/08/17 04:49:17;;;;;;;3.77;3.47;;;;;;;26.20;58.70;99695.19;1704986;83;21177;-68
2022/08/17 04:51:46;;;;;;;5.20;3.17;;;;;;;26.49;57.89;99693.96;1751238;81;21012;-68
2022/08/17 04:54:18;;;;;;;6.12;4.80;;;;;;;26.75;56.86;99698.84;1712217;79;21137;-67
2022/08/17 04:56:45;;;;;;;4.92;3.92;;;;;;;27.03;55.75;99695.38;1702072;80;21043;-68
2022/08/17 04:59:18;;;;;;;7.53;3.65;;;;;;;27.33;53.92;99696.51;1696239;83;21013;-69
2022/08/17 05:01:49;;;;;;;5.47;3.90;;;;;;;27.52;53.38;99699.52;1694851;80;21151;-67
2022/08/17 05:04:20;;;;;;;4.22;3.80;;;;;;;27.66;53.08;99690.64;1696493;83;21045;-67
2022/08/17 05:06:46;;;;;;;6.72;3.42;;;;;;;27.89;52.42;99697.39;1699058;79;21081;-67
2022/08/17 05:09:13;;;;;;;5.58;3.65;;;;;;;28.15;51.26;99693.31;1700952;83;21133;-68
2022/08/17 05:11:40;;;;;;;9.58;3.92;;;;;;;28.08;50.93;99691.61;1689483;81;21006;-68
2022/08/17 05:14:06;;;;;;;4.60;3.12;;;;;;;27.75;50.86;99692.84;1733734;80;21107;-68
2022/08/17 05:16:33;;;;;;;3.85;3.55;;;;;;;27.56;51.86;99704.63;1741433;81;21105;-70
2022/08/17 05:19:01;;;;;;;3.55;3.08;;;;;;;27.52;51.46;99703.63;1740746;82;21025;-68
2022/08/17 05:21:28;;;;;;;3.02;2.83;;;;;;;27.42;51.47;99710.20;1738401;82;21584;-68
2022/08/17 05:23:57;;;;;;;4.53;3.02;;;;;;;27.19;52.46;99705.34;1711450;82;21037;-74
2022/08/17 05:26:26;;;;;;;7.33;3.50;;;;;;;27.21;52.59;99701.72;1737848;79;21073;-69
2022/08/17 05:28:56;;;;;;;5.15;3.50;;;;;;;27.30;52.58;99705.91;1744003;80;21041;-69
2022/08/17 05:31:23;;;;;;;5.92;2.77;;;;;;;27.47;52.50;99707.91;1739398;80;20994;-69
2022/08/17 05:33:49;;;;;;;6.53;3.67;;;;;;;27.69;51.18;99709.17;1772504;79;21057;-69
2022/08/17 05:36:17;;;;;;;5.10;3.37;;;;;;;27.78;51.31;99702.33;1768513;80;21008;-71
2022/08/17 05:38:43;;;;;;;6.80;3.80;;;;;;;27.85;50.75;99700.51;1771296;80;20992;-70
2022/08/17 05:41:10;;;;;;;3.50;3.20;;;;;;;27.85;50.77;99699.14;1764876;80;21056;-69
2022/08/17 05:43:40;;;;;;;5.25;3.50;;;;;;;27.83;50.99;99702.19;1751537;80;21486;-68
2022/08/17 05:46:26;;;;;;;4.12;3.80;;;;;;;27.90;51.04;99704.50;1761831;80;21078;-68
2022/08/17 05:49:00;;;;;;;;;;;;;;;27.98;50.25;99705.06;1754113;81;21006;-69
2022/08/17 05:52:03;;;;;;;7.62;4.03;;;;;;;27.95;49.76;99701.59;1783995;78;20123;-69
2022/08/17 05:55:05;;;;;;;4.95;4.50;;;;;;;27.88;50.51;99701.25;1719410;80;21511;-67
2022/08/17 05:57:46;;;;;;;5.90;3.58;;;;;;;27.87;50.47;99696.31;1766108;79;21113;-68
2022/08/17 06:00:24;;;;;;;4.35;3.47;;;;;;;27.96;50.30;99699.91;1765258;81;20994;-69
2022/08/17 06:03:16;;;;;;;6.92;3.58;;;;;;;27.92;50.16;99698.14;1781809;76;21009;-70
2022/08/17 06:06:23;;;;;;;4.97;3.15;;;;;;;28.01;49.85;99704.98;1824582;77;20982;-68
2022/08/17 06:09:17;;;;;;;3.05;2.85;;;;;;;28.12;50.22;99700.26;1683006;80;21076;-71
2022/08/17 06:11:52;;;;;;;5.05;3.00;;;;;;;28.24;49.16;99700.98;1660118;81;21016;-70
2022/08/17 06:14:31;;;;;;;3.58;3.05;;;;;;;28.13;49.53;99692.84;1695004;81;21518;-70
2022/08/17 06:17:09;;;;;;;4.33;3.47;;;;;;;28.09;50.25;99691.88;1693078;83;21501;-69
2022/08/17 06:19:46;;;;;;;3.90;3.50;;;;;;;28.22;50.03;99692.82;1706244;78;21172;-69
2022/08/17 06:22:17;;;;;;;3.47;3.02;;;;;;;28.31;50.45;99694.45;1689256;83;21136;-69
2022/08/17 06:27:51;;;;;;;8.63;3.33;;;;;;;28.53;48.97;99690.73;1735019;79;21204;-69
2022/08/17 06:30:25;;;;;;;9.15;3.62;;;;;;;28.69;48.82;99691.62;1750306;79;21034;-70
2022/08/17 06:33:01;;;;;;;3.22;3.02;;;;;;;28.78;48.02;99692.38;1753235;79;21044;-69
2022/08/17 06:35:31;;;;;;;7.28;3.05;;;;;;;28.80;48.00;99694.80;1741758;81;21041;-69
2022/08/17 06:38:15;;;;;;;3.52;2.72;;;;;;;28.73;48.72;99696.13;1700074;81;21076;-69
2022/08/17 06:41:06;;;;;;;6.30;3.47;;;;;;;28.80;48.45;99697.01;1703977;82;21030;-70
2022/08/17 06:43:55;;;;;;;6.28;3.70;;;;;;;28.70;47.20;99691.84;1756225;79;21029;-71
2022/08/17 06:46:47;;;;;;;7.28;3.08;;;;;;;28.26;49.13;99694.61;1758413;79;21105;-69
2022/08/17 06:49:28;;;;;;;5.05;3.20;;;;;;;28.18;49.31;99693.23;1752687;80;21097;-69
2022/08/17 06:52:12;;;;;;;3.67;2.80;;;;;;;28.06;50.12;99696.61;1753716;79;21093;-71
2022/08/17 06:55:05;;;;;;;5.30;3.75;;;;;;;27.85;50.68;99695.83;1746918;80;21557;-70
2022/08/17 06:57:42;;;;;;;4.67;3.22;;;;;;;27.68;50.86;99671.96;1713785;78;21098;-69
2022/08/17 07:00:21;;;;;;;3.80;3.27;;;;;;;27.99;50.88;99701.75;1762019;79;20962;-69
2022/08/17 07:03:14;;;;;;;3.83;2.80;;;;;;;28.20;50.56;99700.02;1723497;79;21033;-69
2022/08/17 07:05:55;;;;;;;8.85;2.85;;;;;;;28.48;49.36;99696.37;1729645;82;21073;-69
2022/08/17 07:09:00;;;;;;;8.43;3.70;;;;;;;28.68;47.95;99688.05;1781527;79;21069;-69
2022/08/17 07:11:49;;;;;;;4.30;3.37;;;;;;;28.86;47.74;99696.27;1774244;79;20994;-69
2022/08/17 07:14:51;;;;;;;4.95;3.05;;;;;;;28.84;47.09;99693.84;1765036;80;21072;-70
2022/08/17 07:17:21;;;;;;;10.08;3.75;;;;;;;28.60;47.54;99694.38;1758330;79;21136;-71
2022/08/17 07:19:51;;;;;;;6.20;3.55;;;;;;;28.42;48.00;99690.80;1725974;81;21527;-69
2022/08/17 07:22:45;;;;;;;3.08;2.87;;;;;;;28.32;48.24;99695.25;1735280;81;20987;-70
2022/08/17 07:25:20;;;;;;;7.20;2.95;;;;;;;28.19;48.77;99703.87;1774966;79;21104;-69
2022/08/17 07:27:54;;;;;;;5.08;2.95;;;;;;;28.03;49.76;99699.98;1804194;79;20989;-72
2022/08/17 07:30:36;;;;;;;5.72;3.42;;;;;;;27.86;49.49;99704.30;1737225;79;21129;-73
2022/08/17 07:33:11;;;;;;;9.13;4.78;;;;;;;27.74;50.65;99702.73;1730401;82;21022;-70
2022/08/17 07:35:40;;;;;;;4.83;3.72;;;;;;;27.69;51.00;99694.66;1716086;82;21105;-70
2022/08/17 07:38:26;;;;;;;6.67;4.62;;;;;;;27.66;50.99;99698.05;1709945;83;20990;-69
2022/08/17 07:43:40;;;;;;;10.00;4.00;;;;;;;27.50;50.90;99704.52;1734227;81;21562;-69
2022/08/17 07:49:23;;;;;;;4.00;3.42;;;;;;;27.27;52.37;99704.59;1605078;85;21145;-74
2022/08/17 07:51:55;;;;;;;7.20;4.10;;;;;;;27.18;53.21;99703.70;1701313;83;21092;-70
2022/08/17 07:54:38;;;;;;;4.53;3.70;;;;;;;27.10;52.71;99697.08;1694431;81;21121;-69
2022/08/17 07:57:13;;;;;;;6.47;3.95;;;;;;;27.03;53.45;99703.58;1708941;81;20958;-71
2022/08/17 08:00:00;;;;;;;5.65;4.12;;;;;;;27.01;53.85;99697.59;1698960;81;21113;-69
2022/08/17 08:02:39;;;;;;;4.17;3.70;;;;;;;27.08;54.01;99700.69;1701370;82;21055;-70
2022/08/17 08:05:25;;;;;;;4.08;3.77;;;;;;;27.18;53.91;99693.59;1673483;81;21078;-68
2022/08/17 08:08:00;;;;;;;6.65;4.00;;;;;;;27.20;52.80;99694.66;1667331;84;21153;-68
2022/08/17 08:10:34;;;;;;;6.67;3.00;;;;;;;27.17;52.31;99692.53;1694172;81;21059;-72
2022/08/17 08:13:12;;;;;;;4.00;3.65;;;;;;;27.16;49.56;99695.84;1706244;82;21003;-70
2022/08/17 08:15:47;;;;;;;6.37;4.33;;;;;;;27.25;50.35;99695.89;1707317;81;21153;-75
2022/08/17 08:18:30;;;;;;;4.17;3.70;;;;;;;27.38;49.94;99701.81;1693264;83;20987;-68
2022/08/17 08:21:23;;;;;;;6.78;4.10;;;;;;;27.40;48.98;99693.30;1680961;83;21075;-72
2022/08/17 08:24:12;;;;;;;6.62;4.33;;;;;;;27.28;48.76;99689.80;1667874;83;21181;-70
2022/08/17 08:26:54;;;;;;;5.60;5.10;;;;;;;27.24;49.85;99689.33;1665296;86;21073;-70
2022/08/17 08:29:51;;;;;;;6.70;4.62;;;;;;;27.29;49.55;99694.13;1692133;79;21122;-70
2022/08/17 08:32:32;;;;;;;8.23;4.95;;;;;;;27.38;49.46;99690.87;1605068;88;21189;-69
2022/08/17 08:35:11;;;;;;;4.87;4.33;;;;;;;27.30;49.80;99697.70;1643213;85;21599;-69
2022/08/17 08:38:02;;;;;;;10.50;5.75;;;;;;;27.30;48.54;99694.96;1721851;82;21081;-72
2022/08/17 08:40:46;;;;;;;6.62;5.05;;;;;;;27.24;49.34;99698.37;1717088;79;21060;-69
2022/08/17 08:43:36;;;;;;;8.23;6.20;;;;;;;27.21;50.55;99704.45;1723427;83;21125;-68
2022/08/17 08:46:13;;;;;;;8.40;5.65;;;;;;;27.21;50.27;99700.36;1729454;79;21081;-69
2022/08/17 08:49:22;;;;;;;10.72;6.47;;;;;;;27.14;50.80;99694.52;1727708;82;21065;-69
2022/08/17 08:51:55;;;;;;;5.12;4.45;;;;;;;27.16;51.02;99695.02;1732435;81;21034;-68
2022/08/17 08:54:46;;;;;;;13.00;4.97;;;;;;;27.28;51.09;99693.91;1753319;79;21222;-69
2022/08/17 08:57:32;;;;;;;8.33;5.40;;;;;;;27.37;50.95;99700.22;1747742;80;20986;-69
2022/08/17 09:00:18;;;;;;;;;;;;;;;27.38;50.83;99688.13;1663453;80;21188;-69
2022/08/17 09:03:24;;;;;;;7.62;4.08;;;;;;;27.32;50.99;99692.72;1623681;87;20129;-70
2022/08/17 09:06:17;;;;;;;10.98;5.03;;;;;;;27.28;50.73;99691.16;1671408;82;21139;-69
2022/08/17 09:09:05;;;;;;;5.40;3.95;;;;;;;27.32;49.75;99693.52;1684435;82;21027;-69
2022/08/17 09:11:47;;;;;;;4.87;4.10;;;;;;;27.37;48.44;99687.91;1700448;82;21012;-70
2022/08/17 09:14:24;;;;;;;7.70;4.05;;;;;;;27.45;48.78;99690.99;1694601;82;21067;-69
2022/08/17 09:17:21;;;;;;;7.10;4.62;;;;;;;27.47;48.95;99695.59;1707162;80;21410;-75
2022/08/17 09:20:23;;;;;;;9.53;4.75;;;;;;;27.34;49.95;99694.56;1751011;80;20990;-69
2022/08/17 09:23:02;;;;;;;6.87;5.58;;;;;;;27.19;49.81;99699.87;1749362;79;21593;-70
2022/08/17 09:25:32;;;;;;;6.22;4.95;;;;;;;27.16;51.28;99700.48;1750445;80;21539;-70
2022/08/17 09:28:06;;;;;;;9.63;4.28;;;;;;;27.09;51.88;99701.52;1740791;80;21634;-70
2022/08/17 09:30:46;;;;;;;8.55;4.65;;;;;;;27.10;51.57;99695.71;1737734;80;21035;-71
2022/08/17 09:33:17;;;;;;;6.55;4.80;;;;;;;27.16;51.92;99699.12;1748688;79;21596;-71
2022/08/17 09:36:01;;;;;;;11.25;4.83;;;;;;;27.18;51.80;99697.70;1726628;82;21119;-73
2022/08/17 09:39:05;;;;;;;6.55;4.62;;;;;;;27.17;52.12;99688.44;1747070;80;21177;-70
2022/08/17 09:41:51;;;;;;;8.65;4.78;;;;;;;27.23;52.44;99693.20;1750399;80;21152;-70
2022/08/17 09:45:12;;;;;;;8.98;5.22;;;;;;;27.29;52.35;99691.39;1756454;80;21037;-69
2022/08/17 09:48:19;;;;;;;8.00;5.55;;;;;;;27.33;52.24;99689.66;1757824;80;21076;-69
2022/08/17 09:51:00;;;;;;;17.05;6.15;;;;;;;27.36;51.76;99684.91;1760058;80;21100;-70
2022/08/17 09:53:26;;;;;;;10.00;5.12;;;;;;;27.36;51.87;99682.74;1751956;80;20964;-73
2022/08/17 09:56:17;;;;;;;12.55;5.47;;;;;;;27.37;52.05;99680.27;1704813;80;21036;-70
2022/08/17 09:59:18;;;;;;;8.73;5.83;;;;;;;27.34;52.43;99691.27;1691551;82;21184;-69
2022/08/17 10:02:36;;;;;;;12.65;6.30;;;;;;;27.35;52.57;99686.59;1714646;81;21000;-70
2022/08/17 10:05:22;;;;;;;8.73;5.10;;;;;;;27.35;52.84;99684.68;1743840;80;21039;-70
2022/08/17 10:08:09;;;;;;;8.35;5.65;;;;;;;27.37;53.07;99687.91;1734784;81;21036;-69
2022/08/17 10:10:44;;;;;;;7.17;6.47;;;;;;;27.37;53.52;99674.22;1721873;81;21529;-70
2022/08/17 10:13:35;;;;;;;11.12;6.40;;;;;;;27.36;53.81;99683.55;1754315;80;21004;-69
2022/08/17 10:16:29;;;;;;;10.85;6.62;;;;;;;27.29;53.65;99681.82;1758417;80;21016;-69
2022/08/17 10:19:15;;;;;;;9.78;5.83;;;;;;;27.15;53.97;99686.01;1773117;78;21091;-70
2022/08/17 10:27:28;;;;;;;11.48;5.87;;;;;;;27.23;54.62;99680.33;1760165;80;21077;-71
2022/08/17 10:29:59;;;;;;;6.37;5.75;;;;;;;27.33;54.27;99662.30;1743798;78;21045;-68
2022/08/17 10:32:34;;;;;;;8.53;5.28;;;;;;;27.44;54.12;99664.73;1764327;80;21072;-70
2022/08/17 10:35:32;;;;;;;6.08;5.20;;;;;;;27.49;54.07;99656.39;1703792;80;21132;-69
2022/08/17 10:38:37;;;;;;;10.38;5.72;;;;;;;27.57;53.20;99666.54;1671351;80;21171;-69
2022/08/17 10:41:30;;;;;;;14.25;5.90;;;;;;;27.62;52.89;99659.55;1697054;80;21081;-69
2022/08/17 10:44:22;;;;;;;10.08;5.75;;;;;;;27.61;53.15;99660.67;1680572;82;21145;-71
2022/08/17 10:46:58;;;;;;;13.93;5.20;;;;;;;27.67;53.24;99658.58;1740819;80;21050;-69
2022/08/17 10:49:32;;;;;;;11.65;6.17;;;;;;;27.79;53.01;99678.52;1748595;80;21005;-69
2022/08/17 10:52:05;;;;;;;11.78;5.92;;;;;;;27.84;52.55;99667.39;1751320;78;21094;-70
2022/08/17 10:54:46;;;;;;;10.20;5.15;;;;;;;27.82;52.59;99665.00;1722417;80;20986;-72
2022/08/17 10:57:34;;;;;;;10.98;5.90;;;;;;;27.78;52.36;99659.89;1742583;80;21041;-73
2022/08/17 11:00:26;;;;;;;12.10;5.60;;;;;;;27.82;52.61;99657.32;1729184;80;21068;-74
2022/08/17 11:02:56;;;;;;;10.38;5.28;;;;;;;27.87;52.48;99656.60;1746094;79;21547;-72
2022/08/17 11:05:44;;;;;;;8.15;5.70;;;;;;;27.89;51.93;99668.07;1753773;80;21496;-70
2022/08/17 11:08:48;;;;;;;9.20;5.65;;;;;;;27.90;51.83;99662.84;1754949;78;21104;-70
2022/08/17 11:11:55;;;;;;;12.18;5.35;;;;;;;27.89;51.78;99653.58;1738228;80;21029;-70
2022/08/17 11:14:38;;;;;;;7.87;5.30;;;;;;;27.90;51.79;99658.74;1747365;81;21123;-70
2022/08/17 11:17:25;;;;;;;4.92;4.62;;;;;;;27.96;51.61;99656.66;1739035;81;21000;-70
2022/08/17 11:20:44;;;;;;;12.37;5.42;;;;;;;28.01;51.21;99648.83;1719113;81;21060;-70
2022/08/17 11:23:31;;;;;;;9.85;5.53;;;;;;;28.05;51.28;99652.53;1714767;81;21699;-77
2022/08/17 11:26:02;;;;;;;;;;;;;;;28.10;51.30;99647.69;1691244;83;21410;-69
2022/08/17 11:28:34;;;;;;;11.20;5.58;;;;;;;28.11;51.02;99634.83;1715551;81;20120;-71
2022/08/17 11:31:18;;;;;;;9.33;5.15;;;;;;;28.07;51.06;99637.41;1711724;83;21500;-71
2022/08/17 11:33:52;;;;;;;10.98;5.53;;;;;;;28.11;51.03;99631.52;1686496;82;21120;-69
2022/08/17 11:36:45;;;;;;;14.60;6.17;;;;;;;28.14;50.22;99630.88;1727007;82;21519;-69
2022/08/17 11:39:37;;;;;;;8.30;5.70;;;;;;;28.11;50.60;99636.20;1747420;80;21161;-69
2022/08/17 11:42:24;;;;;;;11.20;5.17;;;;;;;28.10;50.70;99654.55;1762989;80;20978;-69
2022/08/17 11:44:58;;;;;;;13.93;5.25;;;;;;;28.07;50.12;99639.34;1745893;80;21046;-70
2022/08/17 11:53:44;;;;;;;5.53;4.80;;;;;;;28.03;49.70;99623.28;1741643;80;21098;-72
2022/08/17 11:56:35;;;;;;;9.40;5.17;;;;;;;28.03;49.64;99626.86;1729989;81;20976;-71
2022/08/17 11:59:02;;;;;;;7.00;4.65;;;;;;;28.01;49.16;99620.89;1749528;80;21065;-71
2022/08/17 12:01:54;;;;;;;5.83;4.92;;;;;;;27.98;49.47;99632.48;1766125;80;21010;-74
2022/08/17 12:04:33;;;;;;;13.20;5.53;;;;;;;27.97;48.96;99628.13;1771192;80;21092;-70
2022/08/17 12:07:20;;;;;;;5.90;4.40;;;;;;;27.93;49.21;99626.62;1760552;81;21078;-69
2022/08/17 12:09:50;;;;;;;9.00;5.03;;;;;;;27.92;49.65;99615.41;1742420;80;21274;-71
2022/08/17 12:12:33;;;;;;;9.98;5.40;;;;;;;27.96;49.66;99614.20;1738820;80;21478;-72
2022/08/17 12:14:56;;;;;;;6.87;4.67;;;;;;;27.98;49.48;99615.25;1738486;80;21085;-71
2022/08/17 12:17:26;;;;;;;11.20;6.22;;;;;;;27.96;48.82;99612.83;1738973;81;21005;-71
2022/08/17 12:19:54;;;;;;;10.80;5.00;;;;;;;27.95;49.14;99603.81;1744899;81;21124;-69
2022/08/17 12:22:46;;;;;;;15.53;4.80;;;;;;;27.97;49.60;99614.42;1708205;81;21121;-71
2022/08/17 12:25:21;;;;;;;6.33;5.08;;;;;;;27.96;49.72;99606.78;1730148;79;21154;-73
2022/08/17 12:27:49;;;;;;;8.40;4.53;;;;;;;27.95;49.77;99607.09;1734838;81;21170;-70
2022/08/17 12:30:20;;;;;;;6.90;4.30;;;;;;;27.96;49.55;99608.72;1743490;81;21460;-70
2022/08/17 12:32:47;;;;;;;7.37;4.55;;;;;;;27.97;48.96;99596.63;1759781;79;21160;-69
2022/08/17 12:35:26;;;;;;;9.25;4.25;;;;;;;27.99;48.91;99594.39;1740524;80;21041;-70
2022/08/17 12:37:58;;;;;;;11.22;4.85;;;;;;;28.02;49.06;99607.42;1742314;81;21129;-69
2022/08/17 12:40:30;;;;;;;5.75;4.60;;;;;;;28.07;49.20;99598.25;1719473;80;21058;-69
2022/08/17 12:43:06;;;;;;;7.47;4.75;;;;;;;28.06;49.28;99596.63;1740889;80;21173;-72
2022/08/17 12:45:42;;;;;;;9.88;4.95;;;;;;;28.03;49.53;99606.31;1736907;80;21112;-70
2022/08/17 12:48:11;;;;;;;10.13;4.92;;;;;;;28.02;50.23;99607.42;1744634;80;21487;-71
2022/08/17 12:50:43;;;;;;;7.60;4.42;;;;;;;28.06;49.88;99608.38;1790634;77;21064;-73
2022/08/17 12:53:13;;;;;;;7.22;3.77;;;;;;;28.10;49.79;99608.55;1798110;78;21104;-69
2022/08/17 12:55:43;;;;;;;6.15;4.62;;;;;;;28.15;49.68;99610.55;1763669;78;21035;-69